CheckWX is a tool to help pilots better visualize weather data.  It is not intended as a substitute for an official pre-flight weather briefing.

20:41:29 UTC

KMBG TAF
Mobridge Municipal Airport
Mobridge, South Dakota, USA
KMBG 211720Z 2118/2218 VRB03KT P6SM SKC FM220500 18006KT P6SM FEW250 FM221300 23005KT P6SM FEW250

Feb-21@
18:00 UTC

Feb-21 @ 18:00 UTC

Feb-22@
05:00 UTC

Feb-22 @ 05:00 UTC

KMBG 211720Z 2118/2218 VRB03KT P6SM SKC
Wind
  • Variable at 3 KTS
Cloud Levels
  • Clear skies

Feb-22@
05:00 UTC

Feb-22 @ 05:00 UTC

Feb-22@
13:00 UTC

Feb-22 @ 13:00 UTC

FM220500 18006KT P6SM FEW250

From

From Standard forecast or significant change

Wind
  • 180° at 6 KTS
Cloud Levels
  • Few at 25,000' AGL

Feb-22@
13:00 UTC

Feb-22 @ 13:00 UTC

Feb-22@
18:00 UTC

Feb-22 @ 18:00 UTC

FM221300 23005KT P6SM FEW250

From

From Standard forecast or significant change

Wind
  • 230° at 5 KTS
Cloud Levels
  • Few at 25,000' AGL